sensor_id;sensor_type;location;lat;lon;timestamp;pressure;altitude;pressure_sealevel;temperature;humidity
71666;BME280;59503;53.486;10.196;2023-03-03T00:00:43;102525.19;;;-2.07;100.00
71666;BME280;59503;53.486;10.196;2023-03-03T00:03:10;102521.56;;;-2.01;100.00
71666;BME280;59503;53.486;10.196;2023-03-03T00:05:37;102525.28;;;-1.90;100.00
71666;BME280;59503;53.486;10.196;2023-03-03T00:08:03;102525.97;;;-1.83;100.00
71666;BME280;59503;53.486;10.196;2023-03-03T00:10:28;102524.88;;;-1.71;100.00
71666;BME280;59503;53.486;10.196;2023-03-03T00:12:54;102523.94;;;-1.65;100.00
71666;BME280;59503;53.486;10.196;2023-03-03T00:15:22;102517.66;;;-1.59;100.00
71666;BME280;59503;53.486;10.196;2023-03-03T00:17:49;102521.22;;;-1.53;100.00
71666;BME280;59503;53.486;10.196;2023-03-03T00:20:53;102520.94;;;-1.40;100.00
71666;BME280;59503;53.486;10.196;2023-03-03T00:25:50;102527.13;;;-1.23;100.00
71666;BME280;59503;53.486;10.196;2023-03-03T00:30:54;102527.63;;;-1.09;100.00
71666;BME280;59503;53.486;10.196;2023-03-03T00:33:31;102517.50;;;-1.07;100.00
71666;BME280;59503;53.486;10.196;2023-03-03T00:36:23;102519.31;;;-0.96;100.00
71666;BME280;59503;53.486;10.196;2023-03-03T00:38:53;102518.81;;;-0.93;100.00
71666;BME280;59503;53.486;10.196;2023-03-03T00:41:24;102522.88;;;-0.91;100.00
71666;BME280;59503;53.486;10.196;2023-03-03T00:43:51;102520.50;;;-0.87;100.00
71666;BME280;59503;53.486;10.196;2023-03-03T00:46:21;102517.13;;;-0.83;100.00
71666;BME280;59503;53.486;10.196;2023-03-03T00:48:48;102520.69;;;-0.77;100.00
71666;BME280;59503;53.486;10.196;2023-03-03T00:51:30;102519.72;;;-0.71;100.00
71666;BME280;59503;53.486;10.196;2023-03-03T00:53:58;102511.72;;;-0.71;100.00
71666;BME280;59503;53.486;10.196;2023-03-03T00:56:24;102519.88;;;-0.61;100.00
71666;BME280;59503;53.486;10.196;2023-03-03T00:58:49;102512.19;;;-0.58;100.00
71666;BME280;59503;53.486;10.196;2023-03-03T01:01:16;102517.59;;;-0.53;100.00
71666;BME280;59503;53.486;10.196;2023-03-03T01:03:42;102517.94;;;-0.49;100.00
71666;BME280;59503;53.486;10.196;2023-03-03T01:06:09;102517.75;;;-0.43;100.00
71666;BME280;59503;53.486;10.196;2023-03-03T01:08:34;102505.75;;;-0.40;100.00
71666;BME280;59503;53.486;10.196;2023-03-03T01:11:06;102510.38;;;-0.36;100.00
71666;BME280;59503;53.486;10.196;2023-03-03T01:13:34;102513.91;;;-0.30;100.00
71666;BME280;59503;53.486;10.196;2023-03-03T01:16:02;102511.56;;;-0.27;100.00
71666;BME280;59503;53.486;10.196;2023-03-03T01:18:28;102513.97;;;-0.25;100.00
71666;BME280;59503;53.486;10.196;2023-03-03T01:20:54;102494.75;;;-0.27;100.00
71666;BME280;59503;53.486;10.196;2023-03-03T01:23:20;102507.66;;;-0.19;100.00
71666;BME280;59503;53.486;10.196;2023-03-03T01:25:45;102497.56;;;-0.17;100.00
71666;BME280;59503;53.486;10.196;2023-03-03T01:28:11;102492.22;;;-0.17;100.00
71666;BME280;59503;53.486;10.196;2023-03-03T01:30:36;102494.38;;;-0.14;100.00
71666;BME280;59503;53.486;10.196;2023-03-03T01:33:02;102479.16;;;-0.14;100.00
71666;BME280;59503;53.486;10.196;2023-03-03T01:35:28;102480.88;;;-0.03;100.00
71666;BME280;59503;53.486;10.196;2023-03-03T01:37:54;102481.97;;;-0.04;100.00
71666;BME280;59503;53.486;10.196;2023-03-03T01:40:25;102473.50;;;0.05;100.00
71666;BME280;59503;53.486;10.196;2023-03-03T01:42:51;102475.91;;;0.06;100.00
71666;BME280;59503;53.486;10.196;2023-03-03T01:45:29;102486.78;;;0.21;100.00
71666;BME280;59503;53.486;10.196;2023-03-03T01:48:19;102482.06;;;0.28;100.00
71666;BME280;59503;53.486;10.196;2023-03-03T01:51:00;102484.78;;;0.33;100.00
71666;BME280;59503;53.486;10.196;2023-03-03T01:53:31;102484.91;;;0.43;100.00
71666;BME280;59503;53.486;10.196;2023-03-03T01:55:58;102480.66;;;0.47;100.00
71666;BME280;59503;53.486;10.196;2023-03-03T01:58:25;102478.84;;;0.53;100.00
71666;BME280;59503;53.486;10.196;2023-03-03T02:00:58;102478.34;;;0.56;100.00
71666;BME280;59503;53.486;10.196;2023-03-03T02:03:25;102473.78;;;0.56;100.00
71666;BME280;59503;53.486;10.196;2023-03-03T02:05:54;102468.50;;;0.61;100.00
71666;BME280;59503;53.486;10.196;2023-03-03T02:08:25;102473.34;;;0.64;100.00
71666;BME280;59503;53.486;10.196;2023-03-03T02:10:54;102468.81;;;0.65;100.00
71666;BME280;59503;53.486;10.196;2023-03-03T02:13:21;102476.63;;;0.71;100.00
71666;BME280;59503;53.486;10.196;2023-03-03T02:15:47;102471.34;;;0.81;100.00
71666;BME280;59503;53.486;10.196;2023-03-03T02:18:14;102469.81;;;0.85;100.00
71666;BME280;59503;53.486;10.196;2023-03-03T02:23:20;102457.03;;;0.92;100.00
71666;BME280;59503;53.486;10.196;2023-03-03T02:28:27;102466.59;;;0.88;100.00
71666;BME280;59503;53.486;10.196;2023-03-03T02:30:57;102464.44;;;0.85;100.00
71666;BME280;59503;53.486;10.196;2023-03-03T02:33:24;102462.78;;;0.79;100.00
71666;BME280;59503;53.486;10.196;2023-03-03T02:35:50;102472.59;;;1.00;100.00
71666;BME280;59503;53.486;10.196;2023-03-03T02:38:55;102465.66;;;1.04;100.00
71666;BME280;59503;53.486;10.196;2023-03-03T02:44:15;102473.66;;;0.99;100.00
71666;BME280;59503;53.486;10.196;2023-03-03T02:46:44;102468.25;;;0.94;100.00
71666;BME280;59503;53.486;10.196;2023-03-03T02:49:12;102470.09;;;0.89;100.00
71666;BME280;59503;53.486;10.196;2023-03-03T02:51:39;102467.72;;;0.92;100.00
71666;BME280;59503;53.486;10.196;2023-03-03T02:54:06;102466.16;;;1.01;100.00
71666;BME280;59503;53.486;10.196;2023-03-03T02:56:32;102474.19;;;1.01;100.00
71666;BME280;59503;53.486;10.196;2023-03-03T02:58:58;102481.41;;;1.01;100.00
71666;BME280;59503;53.486;10.196;2023-03-03T03:01:23;102481.63;;;0.94;100.00
71666;BME280;59503;53.486;10.196;2023-03-03T03:03:49;102481.63;;;0.94;100.00
71666;BME280;59503;53.486;10.196;2023-03-03T03:06:14;102486.06;;;0.79;100.00
71666;BME280;59503;53.486;10.196;2023-03-03T03:08:40;102476.41;;;0.78;100.00
71666;BME280;59503;53.486;10.196;2023-03-03T03:11:05;102480.16;;;0.77;100.00
71666;BME280;59503;53.486;10.196;2023-03-03T03:13:32;102488.22;;;0.82;100.00
71666;BME280;59503;53.486;10.196;2023-03-03T03:15:58;102481.75;;;0.78;100.00
71666;BME280;59503;53.486;10.196;2023-03-03T03:18:24;102473.44;;;0.74;100.00
71666;BME280;59503;53.486;10.196;2023-03-03T03:20:50;102483.63;;;0.77;100.00
71666;BME280;59503;53.486;10.196;2023-03-03T03:23:16;102476.31;;;0.68;100.00
71666;BME280;59503;53.486;10.196;2023-03-03T03:25:41;102486.81;;;0.74;100.00
71666;BME280;59503;53.486;10.196;2023-03-03T03:28:12;102483.66;;;0.82;100.00
71666;BME280;59503;53.486;10.196;2023-03-03T03:30:38;102489.22;;;0.76;100.00
71666;BME280;59503;53.486;10.196;2023-03-03T03:33:04;102493.63;;;0.87;100.00
71666;BME280;59503;53.486;10.196;2023-03-03T03:35:31;102484.19;;;0.79;100.00
71666;BME280;59503;53.486;10.196;2023-03-03T03:37:56;102493.38;;;0.88;100.00
71666;BME280;59503;53.486;10.196;2023-03-03T03:40:22;102486.41;;;0.87;100.00
71666;BME280;59503;53.486;10.196;2023-03-03T03:42:47;102492.81;;;0.86;100.00
71666;BME280;59503;53.486;10.196;2023-03-03T03:45:13;102485.28;;;0.83;100.00
71666;BME280;59503;53.486;10.196;2023-03-03T03:47:40;102482.16;;;0.91;100.00
71666;BME280;59503;53.486;10.196;2023-03-03T03:50:07;102487.75;;;0.90;100.00
71666;BME280;59503;53.486;10.196;2023-03-03T03:52:32;102488.03;;;0.88;100.00
71666;BME280;59503;53.486;10.196;2023-03-03T03:54:58;102485.13;;;0.95;100.00
71666;BME280;59503;53.486;10.196;2023-03-03T03:57:23;102486.41;;;0.87;100.00
71666;BME280;59503;53.486;10.196;2023-03-03T03:59:49;102490.44;;;0.90;100.00
71666;BME280;59503;53.486;10.196;2023-03-03T04:02:14;102472.47;;;0.85;100.00
71666;BME280;59503;53.486;10.196;2023-03-03T04:04:40;102476.19;;;0.84;100.00
71666;BME280;59503;53.486;10.196;2023-03-03T04:07:05;102472.13;;;0.77;100.00
71666;BME280;59503;53.486;10.196;2023-03-03T04:09:31;102471.53;;;0.70;100.00
71666;BME280;59503;53.486;10.196;2023-03-03T04:11:56;102470.19;;;0.72;100.00
71666;BME280;59503;53.486;10.196;2023-03-03T04:14:21;102466.44;;;0.68;100.00
71666;BME280;59503;53.486;10.196;2023-03-03T04:16:47;102471.53;;;0.70;100.00
71666;BME280;59503;53.486;10.196;2023-03-03T04:19:12;102462.13;;;0.67;100.00
71666;BME280;59503;53.486;10.196;2023-03-03T04:21:37;102464.22;;;0.60;100.00
71666;BME280;59503;53.486;10.196;2023-03-03T04:24:04;102467.88;;;0.54;100.00
71666;BME280;59503;53.486;10.196;2023-03-03T04:26:29;102473.03;;;0.61;100.00
71666;BME280;59503;53.486;10.196;2023-03-03T04:28:56;102470.75;;;0.74;100.00
71666;BME280;59503;53.486;10.196;2023-03-03T04:31:23;102467.28;;;0.74;100.00
71666;BME280;59503;53.486;10.196;2023-03-03T04:33:50;102477.75;;;0.75;100.00
71666;BME280;59503;53.486;10.196;2023-03-03T04:36:16;102484.59;;;0.66;100.00
71666;BME280;59503;53.486;10.196;2023-03-03T04:38:42;102467.41;;;0.62;100.00
71666;BME280;59503;53.486;10.196;2023-03-03T04:41:07;102465.81;;;0.61;100.00
71666;BME280;59503;53.486;10.196;2023-03-03T04:43:33;102475.41;;;0.57;100.00
71666;BME280;59503;53.486;10.196;2023-03-03T04:45:58;102466.44;;;0.68;100.00
71666;BME280;59503;53.486;10.196;2023-03-03T04:48:23;102468.44;;;0.56;100.00
71666;BME280;59503;53.486;10.196;2023-03-03T04:50:49;102471.88;;;0.52;100.00
71666;BME280;59503;53.486;10.196;2023-03-03T04:53:14;102467.28;;;0.47;100.00
71666;BME280;59503;53.486;10.196;2023-03-03T04:55:39;102471.59;;;0.48;100.00
71666;BME280;59503;53.486;10.196;2023-03-03T04:58:05;102478.84;;;0.53;100.00
71666;BME280;59503;53.486;10.196;2023-03-03T05:00:31;102472.97;;;0.56;100.00
71666;BME280;59503;53.486;10.196;2023-03-03T05:02:56;102476.31;;;0.41;100.00
71666;BME280;59503;53.486;10.196;2023-03-03T05:05:22;102475.50;;;0.41;100.00
71666;BME280;59503;53.486;10.196;2023-03-03T05:07:47;102481.47;;;0.48;100.00
71666;BME280;59503;53.486;10.196;2023-03-03T05:10:13;102490.31;;;0.48;100.00
71666;BME280;59503;53.486;10.196;2023-03-03T05:12:38;102482.78;;;0.45;100.00
71666;BME280;59503;53.486;10.196;2023-03-03T05:15:04;102474.63;;;0.57;100.00
71666;BME280;59503;53.486;10.196;2023-03-03T05:17:30;102481.47;;;0.48;100.00
71666;BME280;59503;53.486;10.196;2023-03-03T05:19:55;102483.84;;;0.44;100.00
71666;BME280;59503;53.486;10.196;2023-03-03T05:22:22;102475.97;;;0.33;100.00
71666;BME280;59503;53.486;10.196;2023-03-03T05:24:47;102486.47;;;0.39;100.00
71666;BME280;59503;53.486;10.196;2023-03-03T05:27:14;102485.34;;;0.35;100.00
71666;BME280;59503;53.486;10.196;2023-03-03T05:29:40;102478.47;;;0.44;100.00
71666;BME280;59503;53.486;10.196;2023-03-03T05:32:05;102478.75;;;0.43;100.00
71666;BME280;59503;53.486;10.196;2023-03-03T05:34:31;102488.50;;;0.32;100.00
71666;BME280;59503;53.486;10.196;2023-03-03T05:36:56;102489.00;;;0.29;100.00
71666;BME280;59503;53.486;10.196;2023-03-03T05:39:22;102485.09;;;0.37;100.00
71666;BME280;59503;53.486;10.196;2023-03-03T05:41:47;102483.97;;;0.33;100.00
71666;BME280;59503;53.486;10.196;2023-03-03T05:44:13;102487.53;;;0.38;100.00
71666;BME280;59503;53.486;10.196;2023-03-03T05:46:38;102492.06;;;0.38;100.00
71666;BME280;59503;53.486;10.196;2023-03-03T05:49:03;102493.91;;;0.37;100.00
71666;BME280;59503;53.486;10.196;2023-03-03T05:51:29;102482.91;;;0.34;100.00
71666;BME280;59503;53.486;10.196;2023-03-03T05:53:54;102503.31;;;0.40;100.00
71666;BME280;59503;53.486;10.196;2023-03-03T05:56:20;102501.09;;;0.32;100.00
71666;BME280;59503;53.486;10.196;2023-03-03T05:58:45;102493.75;;;0.44;100.00
71666;BME280;59503;53.486;10.196;2023-03-03T06:01:11;102490.75;;;0.40;100.00
71666;BME280;59503;53.486;10.196;2023-03-03T06:03:36;102491.34;;;0.47;100.00
71666;BME280;59503;53.486;10.196;2023-03-03T06:06:02;102501.94;;;0.37;100.00
71666;BME280;59503;53.486;10.196;2023-03-03T06:08:28;102491.50;;;0.36;100.00
71666;BME280;59503;53.486;10.196;2023-03-03T06:10:53;102498.09;;;0.28;100.00
71666;BME280;59503;53.486;10.196;2023-03-03T06:13:19;102498.16;;;0.33;100.00
71666;BME280;59503;53.486;10.196;2023-03-03T06:15:44;102502.19;;;0.36;100.00
71666;BME280;59503;53.486;10.196;2023-03-03T06:18:10;102509.78;;;0.44;100.00
71666;BME280;59503;53.486;10.196;2023-03-03T06:20:35;102511.97;;;0.47;100.00
71666;BME280;59503;53.486;10.196;2023-03-03T06:23:03;102502.00;;;0.42;100.00
71666;BME280;59503;53.486;10.196;2023-03-03T06:25:28;102513.16;;;0.34;100.00
71666;BME280;59503;53.486;10.196;2023-03-03T06:27:53;102507.84;;;0.39;100.00
71666;BME280;59503;53.486;10.196;2023-03-03T06:30:19;102514.94;;;0.29;100.00
71666;BME280;59503;53.486;10.196;2023-03-03T06:32:45;102517.50;;;0.40;100.00
71666;BME280;59503;53.486;10.196;2023-03-03T06:35:10;102519.31;;;0.35;100.00
71666;BME280;59503;53.486;10.196;2023-03-03T06:37:36;102525.94;;;0.32;100.00
71666;BME280;59503;53.486;10.196;2023-03-03T06:40:02;102519.38;;;0.40;100.00
71666;BME280;59503;53.486;10.196;2023-03-03T06:42:28;102511.66;;;0.43;100.00
71666;BME280;59503;53.486;10.196;2023-03-03T06:44:54;102526.13;;;0.47;100.00
71666;BME280;59503;53.486;10.196;2023-03-03T06:47:19;102524.16;;;0.38;100.00
71666;BME280;59503;53.486;10.196;2023-03-03T06:49:45;102519.06;;;0.36;100.00
71666;BME280;59503;53.486;10.196;2023-03-03T06:52:13;102532.06;;;0.28;100.00
71666;BME280;59503;53.486;10.196;2023-03-03T06:54:39;102520.72;;;0.21;100.00
71666;BME280;59503;53.486;10.196;2023-03-03T06:57:16;102521.63;;;0.26;100.00
71666;BME280;59503;53.486;10.196;2023-03-03T06:59:47;102525.28;;;0.20;100.00
71666;BME280;59503;53.486;10.196;2023-03-03T07:02:16;102521.56;;;0.21;100.00
71666;BME280;59503;53.486;10.196;2023-03-03T07:04:41;102526.06;;;0.42;100.00
71666;BME280;59503;53.486;10.196;2023-03-03T07:07:22;102537.78;;;0.36;100.00
71666;BME280;59503;53.486;10.196;2023-03-03T07:09:50;102521.63;;;0.26;100.00
71666;BME280;59503;53.486;10.196;2023-03-03T07:12:19;102544.66;;;0.32;100.00
71666;BME280;59503;53.486;10.196;2023-03-03T07:14:48;102546.69;;;0.20;100.00
71666;BME280;59503;53.486;10.196;2023-03-03T07:17:19;102562.66;;;0.15;100.00
71666;BME280;59503;53.486;10.196;2023-03-03T07:19:46;102564.91;;;0.23;100.00
71666;BME280;59503;53.486;10.196;2023-03-03T07:22:20;102567.38;;;0.30;100.00
71666;BME280;59503;53.486;10.196;2023-03-03T07:24:48;102571.06;;;0.45;100.00
71666;BME280;59503;53.486;10.196;2023-03-03T07:29:47;102566.19;;;0.42;100.00
71666;BME280;59503;53.486;10.196;2023-03-03T07:32:39;102576.94;;;0.47;100.00
71666;BME280;59503;53.486;10.196;2023-03-03T07:35:42;102582.97;;;0.59;100.00
71666;BME280;59503;53.486;10.196;2023-03-03T07:38:34;102561.56;;;0.59;100.00
71666;BME280;59503;53.486;10.196;2023-03-03T07:41:04;102574.34;;;0.52;100.00
71666;BME280;59503;53.486;10.196;2023-03-03T07:46:01;102572.66;;;0.68;100.00
71666;BME280;59503;53.486;10.196;2023-03-03T07:48:39;102576.41;;;0.67;100.00
71666;BME280;59503;53.486;10.196;2023-03-03T07:53:49;102580.47;;;0.74;100.00
71666;BME280;59503;53.486;10.196;2023-03-03T07:56:33;102581.44;;;0.90;100.00
71666;BME280;59503;53.486;10.196;2023-03-03T07:58:58;102572.91;;;0.93;100.00
71666;BME280;59503;53.486;10.196;2023-03-03T08:01:38;102576.31;;;0.83;100.00
71666;BME280;59503;53.486;10.196;2023-03-03T08:04:17;102574.53;;;0.94;100.00
71666;BME280;59503;53.486;10.196;2023-03-03T08:06:53;102569.78;;;1.01;100.00
71666;BME280;59503;53.486;10.196;2023-03-03T08:12:07;102566.41;;;1.10;100.00
71666;BME280;59503;53.486;10.196;2023-03-03T08:14:36;102561.66;;;1.17;100.00
71666;BME280;59503;53.486;10.196;2023-03-03T08:17:19;102562.44;;;1.18;100.00
71666;BME280;59503;53.486;10.196;2023-03-03T08:19:45;102560.03;;;1.16;100.00
71666;BME280;59503;53.486;10.196;2023-03-03T08:22:15;102564.59;;;1.21;100.00
71666;BME280;59503;53.486;10.196;2023-03-03T08:24:41;102566.44;;;1.15;100.00
71666;BME280;59503;53.486;10.196;2023-03-03T08:27:07;102567.78;;;1.18;100.00
71666;BME280;59503;53.486;10.196;2023-03-03T08:29:32;102569.34;;;1.09;100.00
71666;BME280;59503;53.486;10.196;2023-03-03T08:31:57;102568.31;;;1.15;100.00
71666;BME280;59503;53.486;10.196;2023-03-03T08:34:23;102570.00;;;1.26;100.00
71666;BME280;59503;53.486;10.196;2023-03-03T08:36:49;102564.19;;;1.34;100.00
71666;BME280;59503;53.486;10.196;2023-03-03T08:39:14;102561.13;;;1.20;100.00
71666;BME280;59503;53.486;10.196;2023-03-03T08:41:39;102553.06;;;1.15;100.00
71666;BME280;59503;53.486;10.196;2023-03-03T08:44:08;102565.47;;;1.26;100.00
71666;BME280;59503;53.486;10.196;2023-03-03T08:46:33;102561.22;;;1.31;100.00
71666;BME280;59503;53.486;10.196;2023-03-03T08:48:59;102556.47;;;1.38;100.00
71666;BME280;59503;53.486;10.196;2023-03-03T08:51:24;102554.69;;;1.53;100.00
71666;BME280;59503;53.486;10.196;2023-03-03T08:53:50;102558.22;;;1.59;100.00
71666;BME280;59503;53.486;10.196;2023-03-03T08:56:16;102564.13;;;1.61;100.00
71666;BME280;59503;53.486;10.196;2023-03-03T08:58:41;102560.88;;;1.54;100.00
71666;BME280;59503;53.486;10.196;2023-03-03T09:01:13;102557.03;;;1.45;100.00
71666;BME280;59503;53.486;10.196;2023-03-03T09:03:41;102564.88;;;1.51;100.00
71666;BME280;59503;53.486;10.196;2023-03-03T09:06:06;102566.59;;;1.31;100.00
71666;BME280;59503;53.486;10.196;2023-03-03T09:08:32;102565.88;;;1.45;100.00
71666;BME280;59503;53.486;10.196;2023-03-03T09:10:57;102557.06;;;1.50;100.00
71666;BME280;59503;53.486;10.196;2023-03-03T09:13:23;102563.69;;;1.37;100.00
71666;BME280;59503;53.486;10.196;2023-03-03T09:15:48;102565.31;;;1.43;100.00
71666;BME280;59503;53.486;10.196;2023-03-03T09:20:43;102580.66;;;1.48;100.00
71666;BME280;59503;53.486;10.196;2023-03-03T09:23:27;102588.72;;;1.53;100.00
71666;BME280;59503;53.486;10.196;2023-03-03T09:25:54;102581.56;;;1.63;100.00
71666;BME280;59503;53.486;10.196;2023-03-03T09:28:28;102586.69;;;1.70;100.00
71666;BME280;59503;53.486;10.196;2023-03-03T09:30:57;102573.41;;;1.85;100.00
71666;BME280;59503;53.486;10.196;2023-03-03T09:33:28;102569.50;;;1.61;100.00
71666;BME280;59503;53.486;10.196;2023-03-03T09:36:18;102570.84;;;1.63;100.00
71666;BME280;59503;53.486;10.196;2023-03-03T09:38:46;102573.88;;;1.77;100.00
71666;BME280;59503;53.486;10.196;2023-03-03T09:41:15;102581.00;;;1.98;100.00
71666;BME280;59503;53.486;10.196;2023-03-03T09:44:13;102584.06;;;2.16;100.00
71666;BME280;59503;53.486;10.196;2023-03-03T09:49:38;102588.25;;;2.02;100.00
71666;BME280;59503;53.486;10.196;2023-03-03T09:58:01;102593.28;;;2.40;100.00
71666;BME280;59503;53.486;10.196;2023-03-03T10:06:03;102590.72;;;2.09;100.00
71666;BME280;59503;53.486;10.196;2023-03-03T10:08:55;102597.25;;;2.23;100.00
71666;BME280;59503;53.486;10.196;2023-03-03T10:19:44;102598.88;;;2.34;100.00
71666;BME280;59503;53.486;10.196;2023-03-03T10:22:52;102588.16;;;2.34;100.00
71666;BME280;59503;53.486;10.196;2023-03-03T10:28:43;102592.78;;;2.43;100.00
71666;BME280;59503;53.486;10.196;2023-03-03T10:31:26;102583.66;;;2.44;100.00
71666;BME280;59503;53.486;10.196;2023-03-03T10:36:52;102587.78;;;2.72;100.00
71666;BME280;59503;53.486;10.196;2023-03-03T10:47:41;102571.16;;;2.80;100.00
71666;BME280;59503;53.486;10.196;2023-03-03T10:50:19;102573.25;;;2.63;100.00
71666;BME280;59503;53.486;10.196;2023-03-03T10:52:48;102564.69;;;2.71;100.00
71666;BME280;59503;53.486;10.196;2023-03-03T10:57:58;102566.38;;;3.02;100.00
71666;BME280;59503;53.486;10.196;2023-03-03T11:06:00;102569.63;;;3.44;100.00
71666;BME280;59503;53.486;10.196;2023-03-03T11:08:31;102570.13;;;3.61;100.00
71666;BME280;59503;53.486;10.196;2023-03-03T11:27:52;102542.06;;;4.13;100.00
71666;BME280;59503;53.486;10.196;2023-03-03T11:33:38;102527.53;;;4.09;100.00
71666;BME280;59503;53.486;10.196;2023-03-03T11:44:20;102531.59;;;4.65;100.00
71666;BME280;59503;53.486;10.196;2023-03-03T11:50:13;102526.44;;;4.20;100.00
71666;BME280;59503;53.486;10.196;2023-03-03T11:55:30;102514.66;;;4.59;100.00
71666;BME280;59503;53.486;10.196;2023-03-03T11:58:10;102510.09;;;4.55;100.00
71666;BME280;59503;53.486;10.196;2023-03-03T12:03:38;102505.53;;;4.50;100.00
71666;BME280;59503;53.486;10.196;2023-03-03T12:11:53;102507.28;;;4.75;100.00
71666;BME280;59503;53.486;10.196;2023-03-03T12:14:54;102495.59;;;4.89;100.00
71666;BME280;59503;53.486;10.196;2023-03-03T12:17:46;102487.50;;;4.89;100.00
71666;BME280;59503;53.486;10.196;2023-03-03T12:20:23;102487.78;;;4.88;100.00
71666;BME280;59503;53.486;10.196;2023-03-03T12:23:17;102486.16;;;4.92;100.00
71666;BME280;59503;53.486;10.196;2023-03-03T12:25:47;102476.00;;;5.13;100.00
71666;BME280;59503;53.486;10.196;2023-03-03T12:28:24;102473.50;;;5.21;100.00
71666;BME280;59503;53.486;10.196;2023-03-03T12:31:22;102470.22;;;5.29;100.00
71666;BME280;59503;53.486;10.196;2023-03-03T12:33:56;102460.53;;;5.23;100.00
71666;BME280;59503;53.486;10.196;2023-03-03T12:36:33;102465.88;;;4.99;100.00
71666;BME280;59503;53.486;10.196;2023-03-03T12:39:14;102460.31;;;5.20;100.00
71666;BME280;59503;53.486;10.196;2023-03-03T12:41:55;102456.81;;;5.71;100.00
71666;BME280;59503;53.486;10.196;2023-03-03T12:47:15;102447.63;;;6.19;100.00
71666;BME280;59503;53.486;10.196;2023-03-03T12:50:13;102439.09;;;6.50;100.00
71666;BME280;59503;53.486;10.196;2023-03-03T12:52:54;102426.34;;;6.69;100.00
71666;BME280;59503;53.486;10.196;2023-03-03T12:55:47;102416.22;;;6.61;100.00
71666;BME280;59503;53.486;10.196;2023-03-03T13:17:14;102390.00;;;6.61;95.94
71666;BME280;59503;53.486;10.196;2023-03-03T13:19:56;102397.25;;;6.47;98.68
71666;BME280;59503;53.486;10.196;2023-03-03T13:25:30;102391.06;;;6.47;97.03
71666;BME280;59503;53.486;10.196;2023-03-03T13:28:30;102394.91;;;6.41;97.51
71666;BME280;59503;53.486;10.196;2023-03-03T13:31:04;102383.50;;;6.44;98.08
71666;BME280;59503;53.486;10.196;2023-03-03T13:33:34;102389.78;;;6.58;98.65
71666;BME280;59503;53.486;10.196;2023-03-03T13:36:06;102378.59;;;6.64;96.98
71666;BME280;59503;53.486;10.196;2023-03-03T13:38:41;102381.75;;;6.53;94.94
71666;BME280;59503;53.486;10.196;2023-03-03T13:41:22;102379.78;;;6.58;94.36
71666;BME280;59503;53.486;10.196;2023-03-03T13:43:54;102373.78;;;6.61;95.03
71666;BME280;59503;53.486;10.196;2023-03-03T13:47:30;102361.97;;;6.57;93.74
71666;BME280;59503;53.486;10.196;2023-03-03T13:49:37;102372.13;;;6.79;94.46
71666;BME280;59503;53.486;10.196;2023-03-03T13:52:08;102368.22;;;6.71;91.49
71666;BME280;59503;53.486;10.196;2023-03-03T14:00:41;102347.47;;;6.35;94.55
71666;BME280;59503;53.486;10.196;2023-03-03T14:06:04;102348.00;;;6.37;94.37
71666;BME280;59503;53.486;10.196;2023-03-03T14:09:07;102342.91;;;6.49;94.95
71666;BME280;59503;53.486;10.196;2023-03-03T14:19:30;102326.03;;;6.24;91.86
71666;BME280;59503;53.486;10.196;2023-03-03T14:25:03;102329.50;;;6.44;92.01
71666;BME280;59503;53.486;10.196;2023-03-03T14:32:58;102310.81;;;6.47;94.17
71666;BME280;59503;53.486;10.196;2023-03-03T14:35:29;102307.22;;;6.52;93.89
71666;BME280;59503;53.486;10.196;2023-03-03T14:38:01;102307.16;;;6.57;92.54
71666;BME280;59503;53.486;10.196;2023-03-03T14:40:33;102307.75;;;6.67;91.77
71666;BME280;59503;53.486;10.196;2023-03-03T14:43:01;102302.94;;;6.32;92.00
71666;BME280;59503;53.486;10.196;2023-03-03T14:45:31;102297.41;;;6.23;93.95
71666;BME280;59503;53.486;10.196;2023-03-03T14:47:58;102298.28;;;6.38;93.01
71666;BME280;59503;53.486;10.196;2023-03-03T14:50:34;102302.03;;;6.23;91.70
71666;BME280;59503;53.486;10.196;2023-03-03T14:55:46;102291.25;;;6.04;89.23
71666;BME280;59503;53.486;10.196;2023-03-03T14:58:39;102282.66;;;6.02;88.77
71666;BME280;59503;53.486;10.196;2023-03-03T15:01:29;102286.78;;;5.95;91.85
71666;BME280;59503;53.486;10.196;2023-03-03T15:09:33;102271.28;;;5.87;91.68
71666;BME280;59503;53.486;10.196;2023-03-03T15:12:20;102267.13;;;5.94;91.50
71666;BME280;59503;53.486;10.196;2023-03-03T15:17:35;102271.03;;;6.02;91.88
71666;BME280;59503;53.486;10.196;2023-03-03T15:22:49;102263.06;;;6.10;90.75
71666;BME280;59503;53.486;10.196;2023-03-03T15:28:07;102260.53;;;6.00;90.64
71666;BME280;59503;53.486;10.196;2023-03-03T15:30:41;102264.91;;;5.96;90.44
71666;BME280;59503;53.486;10.196;2023-03-03T15:33:22;102247.31;;;5.80;92.15
71666;BME280;59503;53.486;10.196;2023-03-03T15:35:53;102258.41;;;5.79;91.14
71666;BME280;59503;53.486;10.196;2023-03-03T15:38:37;102257.97;;;5.72;90.00
71666;BME280;59503;53.486;10.196;2023-03-03T15:43:57;102256.47;;;5.66;90.82
71666;BME280;59503;53.486;10.196;2023-03-03T15:52:35;102245.81;;;5.56;91.92
71666;BME280;59503;53.486;10.196;2023-03-03T15:54:59;102241.94;;;5.62;91.70
71666;BME280;59503;53.486;10.196;2023-03-03T15:57:52;102242.88;;;5.52;92.08
71666;BME280;59503;53.486;10.196;2023-03-03T16:00:31;102238.63;;;5.46;92.26
71666;BME280;59503;53.486;10.196;2023-03-03T16:03:32;102238.78;;;5.36;93.50
71666;BME280;59503;53.486;10.196;2023-03-03T16:06:05;102235.47;;;5.44;92.96
71666;BME280;59503;53.486;10.196;2023-03-03T16:11:46;102236.38;;;5.53;93.71